• Join FlightAware (Why Join?)
  • Login
  • US Flag 
02:16AM EDT


 

Airport Tracker/Info


-or-


 

Live Flight TrackerFlight Track Log ✈ AFL1006 ✈ 10-Mar-2014 ✈ UUEE / SVO - UMKK / KGD

Flight Track Log - Related Links

Times and Time Zones

All times are in EDT time to prevent confusion due to time zone crossing. See the AFL1006 flight status page for this flight to view local times or setup timezone preferences in your user account.

Time Position Orientation Groundspeed Altitude Reporting Facility
EDT Latitude Longitude Course Direction KTS MPH feet Rate Location/Type
11:12AM 55.9663 37.0281 271° West  Level Estimated
11:13AM 55.9666 36.8724 270° West  Level Estimated
11:14AM 55.9667 36.7167 270° West  Level Estimated
11:15AM 55.9666 36.5610 270° West  Level Estimated
11:16AM 55.9663 36.4053 270° West  Level Estimated
11:17AM 55.9657 36.2496 270° West  Level Estimated
11:18AM 55.9650 36.0939 270° West  Level Estimated
11:19AM 55.9641 35.9382 269° West  Level Estimated
11:20AM 55.9630 35.7826 269° West  Level Estimated
11:21AM 55.9617 35.6269 269° West  Level Estimated
11:22AM 55.9602 35.4712 269° West  Level Estimated
11:23AM 55.9585 35.3156 269° West  Level Estimated
11:24AM 55.9567 35.1600 269° West  Level Estimated
11:25AM 55.9546 35.0044 269° West  Level Estimated
11:26AM 55.9523 34.8488 269° West  Level Estimated
11:27AM 55.9498 34.6932 268° West  Level Estimated
11:28AM 55.9472 34.5377 268° West  Level Estimated
11:29AM 55.9443 34.3821 268° West  Level Estimated
11:30AM 55.9412 34.2266 268° West  Level Estimated
11:31AM 55.9380 34.0711 268° West  Level Estimated
11:32AM 55.9345 33.9157 268° West  Level Estimated
11:33AM 55.9309 33.7603 268° West  Level Estimated
11:34AM 55.9273 33.6178 268° West  Level Estimated
11:35AM 55.9237 33.4754 267° West  Level Estimated
11:36AM 55.9198 33.3330 267° West  Level Estimated
11:37AM 55.9158 33.1906 267° West  Level Estimated
11:38AM 55.9117 33.0483 267° West  Level Estimated
11:39AM 55.9073 32.9060 267° West  Level Estimated
11:40AM 55.9028 32.7637 267° West  Level Estimated
11:40AM 55.7747 33.7223 263° West 398 458 34,000  Level FlightAware ADS-B (EVDA / DGP)
11:46AM 55.5569 30.6744 262° West 398 458 34,000  Level FlightAware ADS-B (EVDA / DGP)
11:47AM 55.5411 30.4817 262° West 398 458 34,000  Level FlightAware ADS-B (EVDA / DGP)
11:48AM 55.5247 30.2888 261° West 399 459 34,000  Level FlightAware ADS-B (EVDA / DGP)
11:49AM 55.5087 30.1020 261° West 398 458 34,000  Level FlightAware ADS-B (EVDA / DGP)
11:50AM 55.4915 29.9058 261° West 396 456 34,000  Level FlightAware ADS-B (EVDA / DGP)
11:51AM 55.4745 29.7148 261° West 395 455 34,000  Level FlightAware ADS-B (EVDA / DGP)
11:52AM 55.4515 29.4647 261° West 396 456 34,000  Level FlightAware ADS-B (EVDA / DGP)
11:53AM 55.4347 29.2841 261° West 397 457 34,000  Level FlightAware ADS-B (EVDA / DGP)
11:54AM 55.4166 29.0930 261° West 399 459 34,000  Level FlightAware ADS-B (EVDA / DGP)
11:55AM 55.3984 28.9041 260° West 400 460 34,000  Level FlightAware ADS-B (EVDA / DGP)
11:56AM 55.3792 28.7070 260° West 398 458 34,000  Level FlightAware ADS-B (EVDA / DGP)
11:57AM 55.3621 28.5342 260° West 398 458 34,000  Level FlightAware ADS-B (EVDA / DGP)
11:58AM 55.3476 28.3906 260° West 398 458 34,000  Level FlightAware ADS-B (EVDA / DGP)
11:59AM 55.3289 28.2081 260° West 399 459 34,000  Level FlightAware ADS-B (EVDA / DGP)
12:00PM 55.3018 27.9487 259° West 400 460 34,000  Level FlightAware ADS-B (EVDA / DGP)
12:01PM 55.2883 27.8216 260° West 400 460 34,000  Level FlightAware ADS-B (EVDA / DGP)
12:02PM 55.2676 27.6304 259° West 399 459 34,000  Level FlightAware ADS-B (EVDA / DGP)
12:03PM 55.2470 27.4414 259° West 398 458 34,000  Level FlightAware ADS-B (EVDA / DGP)
12:04PM 55.2258 27.2496 259° West 397 457 34,000  Level FlightAware ADS-B (EVDA / DGP)
12:05PM 55.1992 27.0134 259° West 399 459 34,000  Level FlightAware ADS-B (EVDA / DGP)
12:06PM 55.1757 26.8081 259° West 399 459 34,000  Level FlightAware ADS-B (EVDA / DGP)
12:07PM 55.1549 26.6294 259° West 400 460 34,000  Level FlightAware ADS-B (EVDA / DGP)
12:08PM 55.1347 26.4281 266° West 400 460 34,000  Level FlightAware ADS-B (EVDA / DGP)
12:09PM 55.1280 26.2382 266° West 401 461 34,000  Level FlightAware ADS-B (EVDA / DGP)
12:10PM 55.1206 26.0517 266° West 400 460 34,000  Level FlightAware ADS-B (EVDA / DGP)
12:11PM 55.1155 25.9252 266° West 400 460 34,000  Level FlightAware ADS-B (EPSY / SZY)
12:11PM 55.1114 25.8264 266° West 400 460 34,000  Level FlightAware ADS-B (EPSY / SZY)
12:12PM 55.1064 25.7118 266° West 399 459 34,000  Level FlightAware ADS-B (EPSY / SZY)
12:13PM 55.1014 25.5951 266° West 399 459 34,000  Level FlightAware ADS-B (EVDA / DGP)
12:13PM 55.0985 25.4709 270° West 401 461 34,000  Level FlightAware ADS-B (EVDA / DGP)
12:14PM 55.0982 25.3689 269° West 402 463 34,000  Level FlightAware ADS-B (EPSY / SZY)
12:14PM 55.0972 25.2720 269° West 402 463 34,000  Level FlightAware ADS-B (EVDA / DGP)
12:15PM 55.0955 25.1505 268° West 402 463 34,000  Level FlightAware ADS-B (EPSY / SZY)
12:15PM 55.0939 25.0523 268° West 402 463 34,000  Level FlightAware ADS-B (EPSY / SZY)
12:16PM 55.0915 24.9088 268° West 402 463 34,000  Level FlightAware ADS-B (EPSY / SZY)
12:17PM 55.0894 24.7840 268° West 402 463 34,000  Level FlightAware ADS-B (EPSY / SZY)
12:18PM 55.0864 24.6278 268° West 401 461 34,000  Level FlightAware ADS-B (EVDA / DGP)
12:18PM 55.0840 24.5098 268° West 401 461 34,000  Level FlightAware ADS-B (EPSY / SZY)
12:19PM 55.0820 24.4136 268° West 401 461 34,000  Level FlightAware ADS-B (EPSY / SZY)
12:19PM 55.0797 24.3032 268° West 402 463 34,000  Level FlightAware ADS-B (EVDA / DGP)
12:20PM 55.0774 24.2048 268° West 403 464 34,000  Level FlightAware ADS-B (EVDA / DGP)
12:20PM 55.0749 24.0973 268° West 403 464 34,000  Level FlightAware ADS-B (EPSY / SZY)
12:21PM 55.0725 23.9982 268° West 402 463 34,000 -300 Level FlightAware ADS-B (EPSY / SZY)
12:21PM 55.0701 23.8996 268° West 395 455 33,700 -900 Descending FlightAware ADS-B (EPSY / SZY)
12:22PM 55.0670 23.7780 267° West 395 455 33,000 -1,020 Descending FlightAware ADS-B (EPSY / SZY)
12:23PM 55.0640 23.6700 267° West 392 451 32,500 -960 Descending FlightAware ADS-B (EPSY / SZY)
12:23PM 55.0607 23.5521 267° West 386 444 31,900 -1,080 Descending FlightAware ADS-B (EPSY / SZY)
12:24PM 55.0581 23.4578 267° West 383 441 31,300 -1,620 Descending FlightAware ADS-B (EPSY / SZY)
12:24PM 55.0555 23.3673 267° West 381 438 30,300 -2,100 Descending FlightAware ADS-B (EPSY / SZY)
12:25PM 55.0525 23.2733 267° West 377 434 29,200 -2,100 Descending FlightAware ADS-B (EPSY / SZY)
12:25PM 55.0497 23.1867 267° West 373 429 28,200 -2,100 Descending FlightAware ADS-B (EPSY / SZY)
12:26PM 55.0469 23.0958 267° West 369 425 27,100 -2,220 Descending FlightAware ADS-B (EPSY / SZY)
12:26PM 55.0431 22.9787 267° West 365 420 25,600 -2,220 Descending FlightAware ADS-B (EPSY / SZY)
12:27PM 55.0401 22.8888 267° West 362 417 24,500 -2,220 Descending FlightAware ADS-B (EPSY / SZY)
12:28PM 55.0362 22.7722 267° West 358 412 23,000 -2,160 Descending FlightAware ADS-B (EPSY / SZY)
12:28PM 55.0329 22.6831 266° West 355 409 22,000 -1,920 Descending FlightAware ADS-B (EVDA / DGP)
12:29PM 55.0283 22.5567 266° West 347 399 20,600 -1,860 Descending FlightAware ADS-B (EPSY / SZY)
12:29PM 55.0252 22.4733 266° West 343 395 19,700 -1,860 Descending FlightAware ADS-B (EPSY / SZY)
12:30PM 55.0219 22.3839 266° West 339 390 18,700 -1,860 Descending FlightAware ADS-B (EPSY / SZY)
12:30PM 55.0188 22.2997 266° West 336 387 17,700 -1,980 Descending FlightAware ADS-B (EPSY / SZY)
12:31PM 55.0156 22.2194 266° West 333 383 16,700 -1,920 Descending FlightAware ADS-B (EPSY / SZY)
12:32PM 55.0118 22.1257 266° West 329 379 15,700 -1,800 Descending FlightAware ADS-B (EPSY / SZY)
12:32PM 55.0087 22.0483 266° West 328 377 14,800 -1,920 Descending FlightAware ADS-B (EPSY / SZY)
12:33PM 55.0040 21.9314 266° West 323 372 13,400 -1,920 Descending FlightAware ADS-B (EPSY / SZY)
12:33PM 55.0008 21.8557 266° West 317 365 12,500 -1,740 Descending FlightAware ADS-B (EPSY / SZY)
12:34PM 54.9959 21.7469 266° West 307 353 11,300 -1,620 Descending FlightAware ADS-B (EPSY / SZY)
12:35PM 54.9919 21.6497 266° West 295 339 10,300 -1,260 Descending FlightAware ADS-B (EPSY / SZY)
12:35PM 54.9887 21.5786 266° West 275 316 9,800 -1,200 Descending FlightAware ADS-B (EPSY / SZY)
12:36PM 54.9867 21.5332 265° West 272 313 9,300 -1,500 Descending FlightAware ADS-B (EPSY / SZY)
12:36PM 54.9847 21.4909 265° West 268 308 8,800 -1,680 Descending FlightAware ADS-B (EPSY / SZY)
12:36PM 54.9816 21.4223 266° West 269 310 7,900 -1,740 Descending FlightAware ADS-B (EPSY / SZY)
12:37PM 54.9796 21.3790 265° West 266 306 7,300 -1,620 Descending FlightAware ADS-B (EPSY / SZY)
12:37PM 54.9779 21.3435 265° West 264 304 6,800 -1,500 Descending FlightAware ADS-B (EPSY / SZY)
12:37PM 54.9759 21.3003 265° West 261 300 6,300 -1,440 Descending FlightAware ADS-B (EPSY / SZY)
12:40PM 54.9417 21.0143 258° West  Level Estimated
12:41PM 54.9252 20.8783 258° West  Level Estimated
12:42PM 54.9086 20.7423 258° West  Level Estimated
12:43PM 54.8918 20.6065 258° West  Level Estimated
12:44PM 54.8900 20.5926 258° West  Level Estimated
12:45PM 54.8900 20.5926 North  Level Estimated
12:46PM 54.8900 20.5926 North  Level Estimated
12:47PM 54.8900 20.5926 North  Level Estimated
12:48PM 54.8900 20.5926 North  Level Estimated
12:49PM 54.8900 20.5926 North  Level Estimated
12:50PM 54.8900 20.5926 North  Level Estimated
12:51PM 54.8900 20.5926 North  Level Estimated
12:52PM 54.8900 20.5926 North  Level Estimated
12:53PM 54.8900 20.5926 North  Level Estimated
12:54PM 54.8900 20.5926 North  Level Estimated
12:55PM 54.8900 20.5926 North  Level Estimated
12:56PM 54.8900 20.5926 North  Level Estimated
12:57PM 54.8900 20.5926 North  Level Estimated
12:58PM 54.8900 20.5926 North  Level Estimated
12:59PM 54.8900 20.5926 North  Level Estimated
01:00PM 54.8900 20.5926 North  Level Estimated
01:01PM 54.8900 20.5926 North  Level Estimated
01:02PM 54.8900 20.5926 North  Level Estimated
01:03PM 54.8900 20.5926 North  Level Estimated
01:04PM 54.8900 20.5926 North  Level Estimated
01:05PM 54.8900 20.5926 North  Level Estimated
01:06PM 54.8900 20.5926 North  Level Estimated
01:07PM 54.8900 20.5926 North  Level Estimated
01:08PM 54.8900 20.5926 North  Level Estimated
01:09PM 54.8900 20.5926 North  Level Estimated
01:10PM 54.8900 20.5926 North  Level Estimated
01:11PM 54.8900 20.5926 North  Level Estimated
01:12PM 54.8900 20.5926 North  Level Estimated
01:13PM 54.8900 20.5926 North  Level Estimated
01:14PM 54.8900 20.5926 North  Level Estimated
01:15PM 54.8900 20.5926 North  Level Estimated
01:16PM 54.8900 20.5926 North  Level Estimated
01:17PM 54.8900 20.5926 North  Level Estimated
01:18PM 54.8900 20.5926 North  Level Estimated
01:19PM 54.8900 20.5926 North  Level Estimated
01:20PM 54.8900 20.5926 North  Level Estimated
01:21PM 54.8900 20.5926 North  Level Estimated